Nashua, Montana
Current Conditions -  °F | °C
As of 12:53 AM on Sunday 26 Oct 2014 (Local Time) from KGGW Reporting Station
Clear Clear  
Wind Chill: 43°   Ceiling: Unl
Heat Index: 48°   Visibility: 10mi
Dew Point: 32°   Wind: 10mph
Humidity: 54%   Direction: 100°E
Pressure: 29.56"   Gusts: NA
Location:  48.13°N, 106.36°W
Report Text: KGGW 260653Z AUTO 10009KT 10SM CLR 09/00 A2956 RMK AO2 SLP012 T00890000 401890022 $
Loading
Personal Weather Stations






























Interactive Weather Map
Tropical Storm Tracking
New forecast layout! Learn more

10-Day Weather Forecast

Advertisements
Track Severe Weather on mobile